EST,Max TemperatureF,Mean TemperatureF,Min TemperatureF,Max Dew PointF,MeanDew PointF,Min DewpointF,Max Humidity, Mean Humidity, Min Humidity, Max Sea Level PressureIn, Mean Sea Level PressureIn, Min Sea Level PressureIn, Max VisibilityMiles, Mean VisibilityMiles, Min VisibilityMiles, Max Wind SpeedMPH, Mean Wind SpeedMPH, Max Gust SpeedMPH,PrecipitationIn, CloudCover, Events, WindDirDegrees
2012-11-1,48,44,39,39,33,28,100,77,53,29.80,29.71,29.66,10,9,5,24,14,30,0.00,8,,291
2012-11-2,42,38,33,31,28,25,82,68,54,30.10,29.93,29.79,10,10,9,21,11,26,T,7,,327
2012-11-3,42,35,27,28,27,24,92,76,60,30.23,30.19,30.12,10,10,10,10,6,13,0.00,4,,334
2012-11-4,43,34,24,27,25,21,81,66,51,30.25,30.21,30.16,10,10,9,9,4,16,0.00,5,,350
2012-11-5,41,33,24,29,27,24,85,72,59,30.26,30.22,30.18,10,10,7,12,3,14,0.00,7,,354
2012-11-6,43,37,30,29,27,25,92,71,49,30.19,30.09,30.03,10,10,7,15,6,21,0.00,6,,137
2012-11-7,49,37,25,33,27,22,85,66,46,30.19,30.09,30.03,10,9,6,10,5,20,0.00,2,,63
2012-11-8,49,34,19,31,26,18,92,71,49,30.26,30.19,30.14,10,8,3,30,1,,0.00,0,,212
2012-11-9,55,43,30,39,35,26,85,68,50,30.20,30.15,30.10,8,6,4,12,6,15,0.00,6,,188
2012-11-10,62,55,47,47,44,39,82,70,57,30.14,30.07,29.99,10,7,4,15,8,20,0.01,6,,147
2012-11-11,70,63,56,48,43,35,61,49,36,30.09,30.01,29.92,10,10,10,25,15,39,0.00,1,,194
2012-11-12,63,48,32,52,38,22,93,66,39,30.26,29.99,29.88,10,8,2,23,14,33,0.41,8,Rain-Snow,250
2012-11-13,36,29,21,27,19,16,84,66,47,30.57,30.44,30.25,10,10,9,20,7,23,T,6,Snow,268
2012-11-14,41,30,18,26,21,16,88,69,50,30.62,30.56,30.46,10,9,7,9,2,12,0.00,0,,168
2012-11-15,46,35,24,29,26,21,92,71,49,30.48,30.41,30.36,10,7,2,6,0,14,0.00,3,,285
2012-11-16,53,37,21,36,28,20,92,69,46,30.53,30.48,30.40,7,5,2,9,2,10,0.00,0,,315
2012-11-17,53,38,23,34,27,23,100,69,38,30.63,30.56,30.51,10,4,0,9,2,12,0.00,0,Fog,167
2012-11-18,56,42,28,39,33,27,100,68,35,30.56,30.51,30.42,10,4,0,14,4,17,0.00,3,Fog,133
2012-11-19,57,41,24,37,29,23,92,64,35,30.43,30.34,30.19,10,5,0,9,4,13,0.00,1,Fog,144
2012-11-20,57,46,34,45,38,28,93,70,47,30.19,30.15,30.09,10,6,2,8,1,8,0.06,6,Rain,103
2012-11-21,57,45,32,43,38,30,100,78,55,30.25,30.19,30.16,9,3,0,10,4,17,0.00,3,Fog,209
2012-11-22,63,53,43,45,41,38,89,64,39,30.14,30.01,29.77,10,6,2,20,11,28,0.04,2,Rain,200
2012-11-23,56,44,32,47,30,20,77,67,56,30.01,29.80,29.66,10,9,2,31,18,40,0.03,8,Rain-Snow,265
2012-11-24,34,32,29,20,18,17,63,57,51,30.12,30.07,29.99,10,10,10,22,14,28,T,7,,286
2012-11-25,35,31,27,28,23,18,92,75,58,30.02,29.92,29.83,10,6,1,15,8,20,0.05,8,Snow,227
2012-11-26,33,31,29,25,21,17,72,62,51,30.31,30.17,30.03,10,10,10,15,8,20,0.00,8,,289
2012-11-27,35,26,16,19,16,13,84,64,44,30.38,30.32,30.24,10,10,10,10,5,13,0.00,1,,255
2012-11-28,39,33,26,24,20,17,72,60,48,30.32,30.27,30.20,10,10,10,20,9,24,0.00,3,,253
2012-11-29,49,37,25,28,24,21,78,60,42,30.28,30.25,30.18,10,9,2,16,7,23,0.00,0,,226
2012-11-30,39,34,28,36,32,24,92,84,75,30.29,30.23,30.17,7,4,2,15,8,18,0.05,7,Rain,77